»·PEaware :: UAL1592 KEGE-KDEN

UAL1592 :: KEGE-KDEN

FLIGHT INFORMATION

Flight Status: Arrived
Operator:
United Airlines
More flights by this operator :: More flights under this callsign
Pilot: Luca P. (13273)
Aircraft: AIRBUS A320
(A320)
More flights by this aircraft type
Origin: KEGE Eagle Co Regl
United States
Destination: KDEN Denver Intl
United States
More flights between these airports :: More routes between these airports
Route: +COTND2 JESIE RLG FRNCH KAILE2
File this flight plan on PilotEdge
Remarks: PBN / A1B1C1D1L1O1S1 NAV / RNVD1E2A1 DOF / 180107 REG / N411UA SEL / ESBJ CODE / A4D99A OPR / UAL PER / C
Altitude:
(Current/Filed)
31,000ft
Speed:
(Current/Filed)
458kts
Departed: 07-Jan-18 12:17 PM
Arrived: 07-Jan-18 12:53 PM
Distance/Time
Traveled:
104nm/0:36
Distance/Time
To Go:
Arrived

Flight Plot

Page will automatically refresh every two minutes.

Flight plan parsing failed; only flown route is shown


Map Options




Map Legend


Flown Route
Filed Route
Departure Airport
Arrival Airport
Navaid (VOR, NDB)
Fix

Horizontal Profiles

Position Reports

Time Latitude Longitude Heading Altitude Ground
Speed
07-Jan-18 12:05 39.640770 -106.913817 174 6529ft 0kts
07-Jan-18 12:06 39.640770 -106.913817 174 6529ft 0kts
07-Jan-18 12:07 39.640770 -106.913817 174 6529ft 0kts
07-Jan-18 12:08 39.640770 -106.913817 174 6529ft 0kts
07-Jan-18 12:09 39.640770 -106.913817 174 6529ft 0kts
07-Jan-18 12:10 39.640770 -106.913817 174 6529ft 0kts
07-Jan-18 12:11 39.640770 -106.913817 174 6529ft 0kts
07-Jan-18 12:12 39.640770 -106.913817 174 6529ft 0kts
07-Jan-18 12:13 39.640770 -106.913817 174 6529ft 0kts
07-Jan-18 12:14 39.640770 -106.913817 174 6529ft 0kts
07-Jan-18 12:15 39.641196 -106.914021 123 6529ft 2kts
07-Jan-18 12:16 39.641241 -106.914360 81 6529ft 0kts
07-Jan-18 12:17 39.641241 -106.914359 81 6529ft 0kts
07-Jan-18 12:18 39.641241 -106.914358 81 6529ft 0kts
07-Jan-18 12:19 39.641304 -106.913772 81 6529ft 7kts
07-Jan-18 12:20 39.642273 -106.910185 81 6529ft 18kts
07-Jan-18 12:21 39.643219 -106.901691 81 6529ft 21kts
07-Jan-18 12:22 39.643807 -106.900134 1 6529ft 7kts
07-Jan-18 12:23 39.643304 -106.910984 261 6529ft 116kts
07-Jan-18 12:24 39.624769 -106.956862 226 8623ft 168kts
07-Jan-18 12:25 39.588533 -107.011956 226 9794ft 236kts
07-Jan-18 12:26 39.521705 -107.050014 195 11362ft 308kts
07-Jan-18 12:27 39.448762 -107.112794 252 12685ft 345kts
07-Jan-18 12:28 39.469169 -107.224509 320 15063ft 337kts
07-Jan-18 12:29 39.558551 -107.232858 27 17350ft 361kts
07-Jan-18 12:30 39.628358 -107.136767 15 19457ft 361kts
07-Jan-18 12:31 39.721825 -107.084228 23 21347ft 376kts
07-Jan-18 12:32 39.814944 -107.018986 22 23113ft 383kts
07-Jan-18 12:33 39.910111 -106.953672 23 24696ft 390kts
07-Jan-18 12:34 39.998718 -106.869985 49 26177ft 416kts
07-Jan-18 12:35 40.016493 -106.714764 87 27521ft 457kts
07-Jan-18 12:36 40.007650 -106.550789 85 29252ft 448kts
07-Jan-18 12:37 40.039068 -106.407137 39 30792ft 395kts
07-Jan-18 12:38 40.123330 -106.320751 30 31289ft 385kts
07-Jan-18 12:39 40.207269 -106.234882 30 30920ft 374kts
07-Jan-18 12:40 40.287764 -106.153042 30 29295ft 360kts
07-Jan-18 12:41 40.365688 -106.073324 30 27540ft 351kts
07-Jan-18 12:42 40.432209 -105.980827 63 25752ft 371kts
07-Jan-18 12:43 40.420845 -105.839664 96 23690ft 402kts
07-Jan-18 12:44 40.398205 -105.697667 94 21640ft 394kts
07-Jan-18 12:45 40.375870 -105.557818 95 19678ft 387kts
07-Jan-18 12:46 40.354478 -105.422717 94 18336ft 360kts
07-Jan-18 12:47 40.337284 -105.295647 94 16946ft 357kts
07-Jan-18 12:48 40.319490 -105.167062 95 15477ft 350kts
07-Jan-18 12:49 40.303174 -105.049226 95 14988ft 308kts
07-Jan-18 12:50 40.290881 -104.961146 95 14323ft 288kts
07-Jan-18 12:51 40.276242 -104.858875 95 13116ft 283kts
07-Jan-18 12:52 40.233959 -104.776248 137 12188ft 279kts
07-Jan-18 12:53 40.176182 -104.708679 140 10971ft 272kts
07-Jan-18 12:54 40.103996 -104.684222 187 10159ft 231kts
07-Jan-18 12:55 40.051243 -104.686201 180 8767ft 252kts
07-Jan-18 12:56 39.981737 -104.685596 180 7008ft 236kts
07-Jan-18 12:57 39.923901 -104.686871 178 6045ft 173kts
07-Jan-18 12:58 39.885047 -104.686957 179 5445ft 78kts
07-Jan-18 12:59 39.874283 -104.684945 181 5445ft 35kts
07-Jan-18 13:00 39.863662 -104.685082 184 5445ft 26kts
07-Jan-18 13:01 39.860449 -104.681786 65 5445ft 22kts
07-Jan-18 13:02 39.860562 -104.675216 140 5445ft 9kts
07-Jan-18 13:03 39.859404 -104.675314 179 5445ft 0kts
07-Jan-18 13:04 39.859404 -104.675314 179 5445ft 0kts
07-Jan-18 13:05 39.859404 -104.675314 179 5445ft 0kts
07-Jan-18 13:06 39.859404 -104.675314 179 5445ft 0kts
07-Jan-18 13:07 39.859404 -104.675314 179 5445ft 0kts
07-Jan-18 13:08 39.859404 -104.675314 179 5445ft 0kts
07-Jan-18 13:09 39.859404 -104.675314 179 5445ft 0kts
07-Jan-18 13:10 39.859404 -104.675314 179 5445ft 0kts
07-Jan-18 13:11 39.859404 -104.675314 179 5445ft 0kts
07-Jan-18 13:12 39.859404 -104.675314 179 5445ft 0kts
07-Jan-18 13:13 39.859404 -104.675314 179 5445ft 0kts

Navigation Log

Ident Type
Flight plan parsing failed, navigation log unavailable